• Join FlightAware (Why Join?)
  • Login
  • US Flag 
12:43PM EDT


 

Airport Tracker/Info


-or-


 

Live Flight TrackerFlight Track Log ✈ EJA729 ✈ 01-Jul-2013 ✈ KEGE - KPWK

Flight Track Log - Related Links

Times and Time Zones

All times are in EDT time to prevent confusion due to time zone crossing. See the EJA729 flight status page for this flight to view local times or setup timezone preferences in your user account.

Time Position Orientation Groundspeed Altitude Reporting Facility
EDT Latitude Longitude Course Direction KTS MPH feet Rate Location/Type
10:48AM 39.6433 -106.8992 69° East 4 5 6,300  Level Denver Center
10:49AM 39.6442 -106.8989 14° North 4 5 6,300 960 Level Denver Center
10:50AM 39.6233 -106.9694 249° West 203 234 8,300 2,220 Climbing Denver Center
10:51AM 39.5989 -107.0464 248° West 255 293 10,900 2,460 Climbing Denver Center
10:52AM 39.6694 -107.0764 342° North 281 323 13,900 2,700 Climbing Denver Center
10:53AM 39.7753 -107.0472 12° North 333 383 17,100 2,820 Climbing Denver Center
10:54AM 40.0595 -106.2286 72° East  Level FlightAware Approximate
10:55AM 40.1098 -106.0909 69° East  Level FlightAware Approximate
10:55AM 39.8211 -106.9272 64° Northeast 364 419 19,800  Level Denver Center
10:57AM 39.8928 -106.6233 73° East 416 479 23,000 1,020 Climbing Denver Center
10:58AM 39.9225 -106.4986 73° East 442 509 23,000 360 Level Denver Center
10:59AM 39.9653 -106.3131 73° East 444 511 23,800 1,260 Climbing Denver Center
11:00AM 40.0022 -106.1586 73° East 444 511 25,700 1,140 Climbing Denver Center
11:02AM 40.0764 -105.8142 74° East 471 542 27,500 1,260 Climbing Denver Center
11:03AM 40.1169 -105.6461 72° East 454 522 29,700 1,800 Climbing Denver Center
11:04AM 40.1497 -105.4942 74° East 438 504 31,300 1,500 Climbing Denver Center
11:05AM 40.1886 -105.3264 73° East 447 514 32,900 1,500 Climbing Denver Center
11:06AM 40.2208 -105.1742 74° East 437 503 34,400 1,500 Climbing Denver Center
11:07AM 40.2586 -105.0100 73° East 438 504 36,000 1,260 Climbing Denver Center
11:08AM 40.2914 -104.8594 74° East 432 497 37,100 960 Climbing Denver Center
11:09AM 40.3247 -104.7039 74° East 442 509 38,100 840 Climbing Denver Center
11:10AM 40.3528 -104.5747 74° East 439 505 38,900 240 Climbing Denver Center
11:12AM 40.4278 -104.2136 75° East 447 514 39,000  Climbing Denver Center
11:13AM 40.4617 -104.0506 75° East 433 498 39,000  Level Denver Center
11:14AM 40.4933 -103.8997 75° East 439 505 39,000  Level Denver Center
11:15AM 40.5250 -103.7472 75° East 449 517 39,000  Level Denver Center
11:16AM 40.5611 -103.5658 75° East 455 524 39,000  Level Denver Center
11:17AM 40.5914 -103.4147 75° East 452 520 39,000  Level Denver Center
11:19AM 40.5694 -103.2236 99° East  Level FlightAware Approximate
11:20AM 40.6947 -102.9064 74° East 448 516 39,000  Level Denver Center
11:21AM 40.7236 -102.7531 76° East 450 518 39,000  Level Denver Center
11:22AM 40.7581 -102.5767 75° East 446 513 39,000  Level Denver Center
11:24AM 40.7878 -102.4242 76° East 448 516 39,000  Level Denver Center
11:25AM 40.8217 -102.2472 76° East 445 512 39,000  Level Denver Center
11:26AM 40.6962 -102.1349 74° East  Level FlightAware Approximate
11:26AM 40.8506 -102.0939 76° East 448 516 39,000  Level Denver Center
11:27AM 40.8847 -101.9153 76° East 450 518 39,000  Level Denver Center
11:28AM 40.9142 -101.7594 76° East 455 524 39,000  Level Denver Center
11:29AM 40.9486 -101.5792 76° East 454 522 39,000  Level Denver Center
11:30AM 40.9767 -101.4233 77° East 453 521 39,000  Level Denver Center
11:31AM 41.0061 -101.2683 76° East 453 521 39,000  Level Denver Center
11:32AM 41.0383 -101.0867 77° East 451 519 39,000  Level Denver Center
11:33AM 41.0664 -100.9306 77° East 452 520 39,000  Level Denver Center
11:34AM 41.0911 -100.7994 76° East 453 521 39,000  Level Denver Center
11:35AM 41.1278 -100.5889 77° East 455 524 39,000  Level Denver Center
11:36AM 41.1592 -100.4039 77° East 457 526 39,000  Level Denver Center
11:37AM 41.1875 -100.2461 77° East 458 527 39,000  Level Denver Center
11:38AM 41.2142 -100.0878 77° East 458 527 39,000  Level Denver Center
11:39AM 41.2444 -99.9044 78° East 456 525 39,000  Level Denver Center
11:40AM 41.2717 -99.7456 77° East 458 527 39,000  Level Denver Center
11:42AM 41.3178 -99.4678 77° East 460 529 39,000  Level Minneapolis Center
11:42AM 41.3289 -99.4000 78° East 460 529 39,000  Level Denver Center
11:43AM 41.3561 -99.2314 78° East 462 532 39,000  Level Denver Center
11:44AM 41.3842 -99.0619 78° East 464 534 39,000  Level Denver Center
11:45AM 41.4114 -98.8911 78° East 465 535 39,000  Level Denver Center
11:46AM 41.4264 -98.7828 80° East 463 533 39,000  Level Minneapolis Center
11:47AM 41.4533 -98.6131 78° East 465 535 39,000  Level Minneapolis Center
11:48AM 41.4800 -98.4500 78° East 464 534 39,000  Level Minneapolis Center
11:49AM 41.5061 -98.2814 78° East 463 533 39,000  Level Minneapolis Center
11:50AM 41.5328 -98.1100 78° East 464 534 39,000  Level Minneapolis Center
11:51AM 41.5578 -97.9419 79° East 463 533 39,000  Level Minneapolis Center
11:53AM 41.6131 -97.5714 79° East 462 532 39,000  Level Minneapolis Center
11:54AM 41.6381 -97.4019 79° East 464 534 39,000  Level Minneapolis Center
11:55AM 41.6622 -97.2331 79° East 463 533 39,000  Level Minneapolis Center
11:56AM 41.6861 -97.0650 79° East 461 531 39,000  Level Minneapolis Center
11:57AM 41.7100 -96.8947 79° East 464 534 39,000  Level Minneapolis Center
11:58AM 41.7378 -96.6908 80° East 463 533 39,000  Level Minneapolis Center
11:59AM 41.7622 -96.5197 79° East 464 534 39,000  Level Minneapolis Center
12:00PM 41.7844 -96.3481 80° East 467 537 39,000  Level Minneapolis Center
12:01PM 41.8083 -96.1756 79° East 467 537 39,000  Level Minneapolis Center
12:02PM 41.8308 -96.0019 80° East 469 540 39,000  Level Minneapolis Center
12:03PM 41.8544 -95.8286 80° East 468 539 39,000  Level Minneapolis Center
12:04PM 41.8803 -95.6192 81° East 472 543 39,000  Level Minneapolis Center
12:05PM 41.9028 -95.4431 80° East 476 548 39,000  Level Minneapolis Center
12:06PM 41.9244 -95.2708 80° East 470 541 39,000  Level Minneapolis Center
12:08PM 41.9461 -95.0961 80° East 471 542 39,000  Level Minneapolis Center
12:09PM 41.9683 -94.9242 80° East 469 540 39,000  Level Minneapolis Center
12:10PM 41.9878 -94.7514 81° East 468 539 39,000  Level Minneapolis Center
12:12PM 42.0369 -94.3322 81° East 463 533 39,000  Level Chicago Center
12:13PM 42.0522 -94.2028 81° East 463 533 39,000 -60 Level Minneapolis Center
12:14PM 42.0719 -94.0314 81° East 464 534 38,900 -660 Descending Minneapolis Center
12:16PM 42.1122 -93.6858 81° East 469 540 37,000 -660 Descending Minneapolis Center
12:17PM 42.1311 -93.5128 82° East 471 542 37,000  Level Minneapolis Center
12:18PM 42.1539 -93.3033 82° East 475 547 37,000  Level Minneapolis Center
12:19PM 42.1719 -93.1289 82° East 475 547 37,000  Level Minneapolis Center
12:20PM 42.1897 -92.9544 82° East 475 547 37,000 -480 Level Minneapolis Center
12:21PM 42.2083 -92.7800 82° East 475 547 36,100 -960 Descending Minneapolis Center
12:22PM 42.2264 -92.6069 82° East 473 544 35,100 -540 Descending Minneapolis Center
12:23PM 42.2467 -92.4022 82° East 467 537 35,000 -60 Descending Minneapolis Center
12:24PM 42.2639 -92.2281 82° East 469 540 35,000 -600 Level Minneapolis Center
12:25PM 42.2800 -92.0550 83° East 471 542 33,800 -960 Descending Minneapolis Center
12:26PM 42.2967 -91.8839 82° East 470 541 33,100 -1,080 Descending Minneapolis Center
12:27PM 42.3161 -91.6761 83° East 471 542 31,600 -1,380 Descending Minneapolis Center
12:28PM 42.3314 -91.5003 83° East 477 549 30,300 -1,320 Descending Minneapolis Center
12:29PM 42.3475 -91.3267 83° East 475 547 28,900 -1,380 Descending Minneapolis Center
12:30PM 42.3628 -91.1481 83° East 481 554 27,500 -1,260 Descending Minneapolis Center
12:31PM 42.3797 -90.9561 83° East 481 554 26,400 -1,620 Descending Minneapolis Center
12:33PM 42.4000 -90.7017 84° East 462 532 23,700 -1,740 Descending Chicago Center
12:34PM 42.3814 -90.5350 99° East 457 526 22,200 -1,500 Descending Chicago Center
12:35PM 42.3631 -90.3733 99° East 442 509 20,700 -1,560 Descending Chicago Center
12:37PM 42.3275 -90.0403 98° East 402 463 17,500 -1,620 Descending Chicago Center
12:38PM 42.3108 -89.9008 99° East 373 429 15,700 -1,740 Descending Chicago Center
12:39PM 42.2947 -89.7667 99° East 365 420 14,000 -1,680 Descending Chicago Center
12:40PM 42.2783 -89.6350 100° East 360 414 12,300 -1,560 Descending Chicago Center
12:41PM 42.2631 -89.5097 99° East 342 394 10,800 -1,080 Descending Chicago Center
12:43PM 42.2514 -89.2903 94° East 271 312 9,000 -900 Descending Chicago Center
12:44PM 42.2675 -89.1906 78° East 271 312 8,100 -1,260 Descending Chicago Center
12:45PM 42.2822 -89.0950 78° East 264 304 6,500 -1,020 Descending Chicago Center
12:47PM 42.2833 -88.8631 90° East  Level FlightAware Approximate
12:47PM 42.3097 -88.9200 90° East 239 275 5,000  Level Chicago Center
12:48PM 42.3239 -88.8281 78° East 237 273 5,000  Level Chicago Center
12:49PM 42.3383 -88.7297 79° East 239 275 5,000  Level Chicago Center
12:50PM 42.3528 -88.6408 78° East 242 278 5,000  Level Chicago Center
12:51PM 42.3594 -88.5483 84° East 247 284 5,000 -60 Level Chicago Center
12:52PM 42.3586 -88.4561 91° East 247 284 4,900 -60 Descending Chicago Center
12:53PM 42.3589 -88.3500 90° East 245 282 4,900  Level Chicago Center
12:54PM 42.3414 -88.2708 107° East 240 276 4,900 -300 Level Chicago Center
12:55PM 42.3097 -88.2083 124° Southeast 227 261 4,300 -1,200 Descending Chicago Center
12:57PM 42.2686 -88.1261 124° Southeast 223 257 2,500 -1,140 Descending Chicago Center
12:58PM 42.2350 -88.0622 125° Southeast 218 251 2,000 -180 Descending Chicago Center
12:59PM 42.1983 -88.0089 133° Southeast 209 241 2,200 60 Climbing Chicago Center
01:00PM 42.1589 -87.9608 138° Southeast 207 238 2,200  Level Chicago Center
01:02PM 42.1143 -87.9015 124° Southeast  Level Estimated
01:09PM 42.1143 -87.9015 124° Southeast  Level Estimated
01:10PM 42.1143 -87.9015 124° Southeast  Level Estimated
01:11PM 42.1143 -87.9015 124° Southeast  Level Estimated